sensor_id;sensor_type;location;lat;lon;timestamp;P1;durP1;ratioP1;P2;durP2;ratioP2
21181;SDS011;10749;46.296;7.524;2023-04-15T00:01:53;2.50;;;0.70;;
21181;SDS011;10749;46.296;7.524;2023-04-15T00:04:18;2.03;;;0.80;;
21181;SDS011;10749;46.296;7.524;2023-04-15T00:06:49;1.53;;;0.70;;
21181;SDS011;10749;46.296;7.524;2023-04-15T00:09:16;1.20;;;0.73;;
21181;SDS011;10749;46.296;7.524;2023-04-15T00:11:42;1.97;;;0.70;;
21181;SDS011;10749;46.296;7.524;2023-04-15T00:14:07;2.87;;;0.80;;
21181;SDS011;10749;46.296;7.524;2023-04-15T00:16:33;0.90;;;0.60;;
21181;SDS011;10749;46.296;7.524;2023-04-15T00:18:58;1.93;;;1.00;;
21181;SDS011;10749;46.296;7.524;2023-04-15T00:21:23;3.07;;;0.90;;
21181;SDS011;10749;46.296;7.524;2023-04-15T00:23:48;1.80;;;0.70;;
21181;SDS011;10749;46.296;7.524;2023-04-15T00:26:16;2.33;;;1.00;;
21181;SDS011;10749;46.296;7.524;2023-04-15T00:28:43;2.10;;;0.63;;
21181;SDS011;10749;46.296;7.524;2023-04-15T00:31:08;1.93;;;0.80;;
21181;SDS011;10749;46.296;7.524;2023-04-15T00:33:34;1.33;;;0.60;;
21181;SDS011;10749;46.296;7.524;2023-04-15T00:36:00;2.90;;;0.63;;
21181;SDS011;10749;46.296;7.524;2023-04-15T00:38:26;0.93;;;0.80;;
21181;SDS011;10749;46.296;7.524;2023-04-15T00:40:52;1.43;;;0.70;;
21181;SDS011;10749;46.296;7.524;2023-04-15T00:43:17;1.80;;;0.70;;
21181;SDS011;10749;46.296;7.524;2023-04-15T00:45:43;2.63;;;0.50;;
21181;SDS011;10749;46.296;7.524;2023-04-15T00:48:08;2.40;;;0.90;;
21181;SDS011;10749;46.296;7.524;2023-04-15T00:50:35;2.03;;;0.60;;
21181;SDS011;10749;46.296;7.524;2023-04-15T00:53:00;2.77;;;0.63;;
21181;SDS011;10749;46.296;7.524;2023-04-15T00:55:26;2.07;;;0.80;;
21181;SDS011;10749;46.296;7.524;2023-04-15T00:57:52;2.27;;;0.90;;
21181;SDS011;10749;46.296;7.524;2023-04-15T01:00:17;2.00;;;0.83;;
21181;SDS011;10749;46.296;7.524;2023-04-15T01:02:44;1.80;;;0.70;;
21181;SDS011;10749;46.296;7.524;2023-04-15T01:05:09;1.50;;;0.83;;
21181;SDS011;10749;46.296;7.524;2023-04-15T01:07:35;1.73;;;0.60;;
21181;SDS011;10749;46.296;7.524;2023-04-15T01:10:02;1.50;;;0.70;;
21181;SDS011;10749;46.296;7.524;2023-04-15T01:12:28;1.37;;;0.50;;
21181;SDS011;10749;46.296;7.524;2023-04-15T01:14:54;2.27;;;1.00;;
21181;SDS011;10749;46.296;7.524;2023-04-15T01:17:20;1.53;;;0.70;;
21181;SDS011;10749;46.296;7.524;2023-04-15T01:19:45;2.03;;;0.80;;
21181;SDS011;10749;46.296;7.524;2023-04-15T01:22:11;2.17;;;1.00;;
21181;SDS011;10749;46.296;7.524;2023-04-15T01:24:36;2.37;;;0.93;;
21181;SDS011;10749;46.296;7.524;2023-04-15T01:27:02;2.47;;;1.00;;
21181;SDS011;10749;46.296;7.524;2023-04-15T01:29:29;2.70;;;0.80;;
21181;SDS011;10749;46.296;7.524;2023-04-15T01:31:55;1.67;;;0.90;;
21181;SDS011;10749;46.296;7.524;2023-04-15T01:34:21;2.67;;;0.90;;
21181;SDS011;10749;46.296;7.524;2023-04-15T01:36:47;2.53;;;0.90;;
21181;SDS011;10749;46.296;7.524;2023-04-15T01:39:12;2.60;;;0.90;;
21181;SDS011;10749;46.296;7.524;2023-04-15T01:41:38;1.07;;;0.90;;
21181;SDS011;10749;46.296;7.524;2023-04-15T01:44:04;3.23;;;1.00;;
21181;SDS011;10749;46.296;7.524;2023-04-15T01:46:31;2.03;;;0.80;;
21181;SDS011;10749;46.296;7.524;2023-04-15T01:48:56;2.97;;;1.10;;
21181;SDS011;10749;46.296;7.524;2023-04-15T01:51:22;1.40;;;0.90;;
21181;SDS011;10749;46.296;7.524;2023-04-15T01:53:47;1.90;;;1.00;;
21181;SDS011;10749;46.296;7.524;2023-04-15T01:56:12;3.03;;;0.93;;
21181;SDS011;10749;46.296;7.524;2023-04-15T01:58:38;3.10;;;1.30;;
21181;SDS011;10749;46.296;7.524;2023-04-15T02:01:04;4.50;;;1.23;;
21181;SDS011;10749;46.296;7.524;2023-04-15T02:03:29;2.93;;;1.00;;
21181;SDS011;10749;46.296;7.524;2023-04-15T02:05:55;1.97;;;1.20;;
21181;SDS011;10749;46.296;7.524;2023-04-15T02:08:20;2.47;;;1.07;;
21181;SDS011;10749;46.296;7.524;2023-04-15T02:10:46;2.33;;;0.83;;
21181;SDS011;10749;46.296;7.524;2023-04-15T02:13:12;2.83;;;1.17;;
21181;SDS011;10749;46.296;7.524;2023-04-15T02:15:37;2.23;;;1.10;;
21181;SDS011;10749;46.296;7.524;2023-04-15T02:18:03;2.87;;;0.90;;
21181;SDS011;10749;46.296;7.524;2023-04-15T02:20:28;1.80;;;1.10;;
21181;SDS011;10749;46.296;7.524;2023-04-15T02:22:54;1.73;;;0.90;;
21181;SDS011;10749;46.296;7.524;2023-04-15T02:25:20;3.53;;;1.20;;
21181;SDS011;10749;46.296;7.524;2023-04-15T02:27:46;5.27;;;1.43;;
21181;SDS011;10749;46.296;7.524;2023-04-15T02:30:11;4.47;;;1.30;;
21181;SDS011;10749;46.296;7.524;2023-04-15T02:32:36;1.70;;;1.00;;
21181;SDS011;10749;46.296;7.524;2023-04-15T02:35:03;4.13;;;1.10;;
21181;SDS011;10749;46.296;7.524;2023-04-15T02:37:29;3.00;;;0.97;;
21181;SDS011;10749;46.296;7.524;2023-04-15T02:39:55;1.67;;;0.90;;
21181;SDS011;10749;46.296;7.524;2023-04-15T02:42:21;1.90;;;0.90;;
21181;SDS011;10749;46.296;7.524;2023-04-15T02:44:46;3.33;;;0.90;;
21181;SDS011;10749;46.296;7.524;2023-04-15T02:47:11;3.30;;;1.30;;
21181;SDS011;10749;46.296;7.524;2023-04-15T02:49:38;2.77;;;1.03;;
21181;SDS011;10749;46.296;7.524;2023-04-15T02:52:04;2.40;;;0.90;;
21181;SDS011;10749;46.296;7.524;2023-04-15T02:54:30;3.43;;;1.20;;
21181;SDS011;10749;46.296;7.524;2023-04-15T02:56:57;2.77;;;1.03;;
21181;SDS011;10749;46.296;7.524;2023-04-15T02:59:23;1.70;;;0.90;;
21181;SDS011;10749;46.296;7.524;2023-04-15T03:01:48;2.13;;;1.00;;
21181;SDS011;10749;46.296;7.524;2023-04-15T03:04:13;2.20;;;0.90;;
21181;SDS011;10749;46.296;7.524;2023-04-15T03:06:39;3.13;;;1.07;;
21181;SDS011;10749;46.296;7.524;2023-04-15T03:09:04;2.57;;;1.00;;
21181;SDS011;10749;46.296;7.524;2023-04-15T03:11:30;2.50;;;0.80;;
21181;SDS011;10749;46.296;7.524;2023-04-15T03:13:55;3.77;;;0.90;;
21181;SDS011;10749;46.296;7.524;2023-04-15T03:16:21;1.83;;;0.90;;
21181;SDS011;10749;46.296;7.524;2023-04-15T03:18:46;2.70;;;1.10;;
21181;SDS011;10749;46.296;7.524;2023-04-15T03:21:11;1.57;;;0.93;;
21181;SDS011;10749;46.296;7.524;2023-04-15T03:23:37;1.73;;;0.90;;
21181;SDS011;10749;46.296;7.524;2023-04-15T03:26:02;2.33;;;1.10;;
21181;SDS011;10749;46.296;7.524;2023-04-15T03:28:29;1.20;;;0.87;;
21181;SDS011;10749;46.296;7.524;2023-04-15T03:30:54;3.10;;;1.00;;
21181;SDS011;10749;46.296;7.524;2023-04-15T03:33:20;1.83;;;0.90;;
21181;SDS011;10749;46.296;7.524;2023-04-15T03:35:45;2.07;;;1.03;;
21181;SDS011;10749;46.296;7.524;2023-04-15T03:38:11;2.13;;;0.90;;
21181;SDS011;10749;46.296;7.524;2023-04-15T03:40:37;2.00;;;1.10;;
21181;SDS011;10749;46.296;7.524;2023-04-15T03:43:05;1.50;;;0.80;;
21181;SDS011;10749;46.296;7.524;2023-04-15T03:45:31;2.03;;;0.90;;
21181;SDS011;10749;46.296;7.524;2023-04-15T03:47:56;3.27;;;1.00;;
21181;SDS011;10749;46.296;7.524;2023-04-15T03:50:22;2.93;;;1.00;;
21181;SDS011;10749;46.296;7.524;2023-04-15T03:52:47;1.63;;;1.00;;
21181;SDS011;10749;46.296;7.524;2023-04-15T03:55:12;2.23;;;1.10;;
21181;SDS011;10749;46.296;7.524;2023-04-15T03:57:38;3.97;;;1.07;;
21181;SDS011;10749;46.296;7.524;2023-04-15T04:00:04;4.67;;;1.80;;
21181;SDS011;10749;46.296;7.524;2023-04-15T04:02:30;1.50;;;0.83;;
21181;SDS011;10749;46.296;7.524;2023-04-15T04:04:55;2.70;;;1.10;;
21181;SDS011;10749;46.296;7.524;2023-04-15T04:07:22;2.67;;;0.80;;
21181;SDS011;10749;46.296;7.524;2023-04-15T04:09:47;3.07;;;0.93;;
21181;SDS011;10749;46.296;7.524;2023-04-15T04:12:13;1.80;;;1.00;;
21181;SDS011;10749;46.296;7.524;2023-04-15T04:14:38;3.83;;;0.80;;
21181;SDS011;10749;46.296;7.524;2023-04-15T04:17:04;2.60;;;0.90;;
21181;SDS011;10749;46.296;7.524;2023-04-15T04:19:29;2.60;;;1.20;;
21181;SDS011;10749;46.296;7.524;2023-04-15T04:21:54;2.50;;;1.23;;
21181;SDS011;10749;46.296;7.524;2023-04-15T04:24:20;3.57;;;1.30;;
21181;SDS011;10749;46.296;7.524;2023-04-15T04:26:45;4.17;;;1.13;;
21181;SDS011;10749;46.296;7.524;2023-04-15T04:29:10;3.90;;;1.00;;
21181;SDS011;10749;46.296;7.524;2023-04-15T04:31:36;2.17;;;0.97;;
21181;SDS011;10749;46.296;7.524;2023-04-15T04:34:01;2.60;;;1.00;;
21181;SDS011;10749;46.296;7.524;2023-04-15T04:36:26;3.80;;;0.93;;
21181;SDS011;10749;46.296;7.524;2023-04-15T04:38:52;1.47;;;0.73;;
21181;SDS011;10749;46.296;7.524;2023-04-15T04:41:17;2.50;;;1.00;;
21181;SDS011;10749;46.296;7.524;2023-04-15T04:43:42;3.50;;;1.10;;
21181;SDS011;10749;46.296;7.524;2023-04-15T04:46:08;2.40;;;1.10;;
21181;SDS011;10749;46.296;7.524;2023-04-15T04:48:34;3.07;;;1.20;;
21181;SDS011;10749;46.296;7.524;2023-04-15T04:50:59;2.57;;;1.00;;
21181;SDS011;10749;46.296;7.524;2023-04-15T04:53:24;5.13;;;1.43;;
21181;SDS011;10749;46.296;7.524;2023-04-15T04:55:50;3.80;;;1.00;;
21181;SDS011;10749;46.296;7.524;2023-04-15T04:58:15;1.80;;;0.90;;
21181;SDS011;10749;46.296;7.524;2023-04-15T05:00:41;2.50;;;1.00;;
21181;SDS011;10749;46.296;7.524;2023-04-15T05:03:06;2.33;;;1.23;;
21181;SDS011;10749;46.296;7.524;2023-04-15T05:05:32;2.90;;;0.90;;
21181;SDS011;10749;46.296;7.524;2023-04-15T05:07:57;4.27;;;1.53;;
21181;SDS011;10749;46.296;7.524;2023-04-15T05:10:22;3.37;;;1.23;;
21181;SDS011;10749;46.296;7.524;2023-04-15T05:12:48;3.60;;;1.13;;
21181;SDS011;10749;46.296;7.524;2023-04-15T05:15:13;7.73;;;1.60;;
21181;SDS011;10749;46.296;7.524;2023-04-15T05:17:38;3.50;;;1.20;;
21181;SDS011;10749;46.296;7.524;2023-04-15T05:20:04;3.03;;;1.20;;
21181;SDS011;10749;46.296;7.524;2023-04-15T05:22:29;4.03;;;1.40;;
21181;SDS011;10749;46.296;7.524;2023-04-15T05:24:55;5.13;;;1.70;;
21181;SDS011;10749;46.296;7.524;2023-04-15T05:27:20;2.53;;;1.10;;
21181;SDS011;10749;46.296;7.524;2023-04-15T05:29:46;3.33;;;1.37;;
21181;SDS011;10749;46.296;7.524;2023-04-15T05:32:11;2.67;;;1.20;;
21181;SDS011;10749;46.296;7.524;2023-04-15T05:34:37;2.10;;;1.20;;
21181;SDS011;10749;46.296;7.524;2023-04-15T05:37:02;3.10;;;1.20;;
21181;SDS011;10749;46.296;7.524;2023-04-15T05:39:27;3.57;;;1.37;;
21181;SDS011;10749;46.296;7.524;2023-04-15T05:41:53;3.47;;;1.60;;
21181;SDS011;10749;46.296;7.524;2023-04-15T05:44:18;5.43;;;1.57;;
21181;SDS011;10749;46.296;7.524;2023-04-15T05:46:43;2.60;;;1.40;;
21181;SDS011;10749;46.296;7.524;2023-04-15T05:49:09;4.50;;;1.60;;
21181;SDS011;10749;46.296;7.524;2023-04-15T05:51:34;4.53;;;1.80;;
21181;SDS011;10749;46.296;7.524;2023-04-15T05:54:00;4.43;;;1.63;;
21181;SDS011;10749;46.296;7.524;2023-04-15T05:56:25;3.53;;;1.53;;
21181;SDS011;10749;46.296;7.524;2023-04-15T05:58:51;2.67;;;1.30;;
21181;SDS011;10749;46.296;7.524;2023-04-15T06:01:16;3.07;;;1.33;;
21181;SDS011;10749;46.296;7.524;2023-04-15T06:03:42;2.83;;;1.30;;
21181;SDS011;10749;46.296;7.524;2023-04-15T06:06:07;4.47;;;1.50;;
21181;SDS011;10749;46.296;7.524;2023-04-15T06:08:33;1.67;;;1.00;;
21181;SDS011;10749;46.296;7.524;2023-04-15T06:10:58;2.93;;;1.30;;
21181;SDS011;10749;46.296;7.524;2023-04-15T06:13:24;4.10;;;1.40;;
21181;SDS011;10749;46.296;7.524;2023-04-15T06:15:49;3.63;;;1.60;;
21181;SDS011;10749;46.296;7.524;2023-04-15T06:18:15;2.53;;;1.33;;
21181;SDS011;10749;46.296;7.524;2023-04-15T06:20:40;2.63;;;1.27;;
21181;SDS011;10749;46.296;7.524;2023-04-15T06:23:05;4.77;;;1.50;;
21181;SDS011;10749;46.296;7.524;2023-04-15T06:25:31;2.77;;;1.30;;
21181;SDS011;10749;46.296;7.524;2023-04-15T06:27:56;5.00;;;1.73;;
21181;SDS011;10749;46.296;7.524;2023-04-15T06:30:21;3.00;;;1.60;;
21181;SDS011;10749;46.296;7.524;2023-04-15T06:32:46;2.47;;;1.43;;
21181;SDS011;10749;46.296;7.524;2023-04-15T06:35:12;3.27;;;1.50;;
21181;SDS011;10749;46.296;7.524;2023-04-15T06:37:37;2.73;;;1.57;;
21181;SDS011;10749;46.296;7.524;2023-04-15T06:40:03;4.73;;;1.80;;
21181;SDS011;10749;46.296;7.524;2023-04-15T06:42:29;4.70;;;1.70;;
21181;SDS011;10749;46.296;7.524;2023-04-15T06:44:54;2.97;;;1.70;;
21181;SDS011;10749;46.296;7.524;2023-04-15T06:47:20;2.23;;;1.67;;
21181;SDS011;10749;46.296;7.524;2023-04-15T06:49:46;3.77;;;1.83;;
21181;SDS011;10749;46.296;7.524;2023-04-15T06:52:11;2.27;;;1.60;;
21181;SDS011;10749;46.296;7.524;2023-04-15T06:54:37;3.00;;;1.73;;
21181;SDS011;10749;46.296;7.524;2023-04-15T06:57:02;4.30;;;1.90;;
21181;SDS011;10749;46.296;7.524;2023-04-15T06:59:27;3.87;;;2.30;;
21181;SDS011;10749;46.296;7.524;2023-04-15T07:01:52;3.60;;;1.60;;
21181;SDS011;10749;46.296;7.524;2023-04-15T07:04:18;5.53;;;2.37;;
21181;SDS011;10749;46.296;7.524;2023-04-15T07:06:44;3.70;;;2.10;;
21181;SDS011;10749;46.296;7.524;2023-04-15T07:09:10;5.50;;;2.30;;
21181;SDS011;10749;46.296;7.524;2023-04-15T07:11:35;3.10;;;1.97;;
21181;SDS011;10749;46.296;7.524;2023-04-15T07:14:00;3.57;;;1.73;;
21181;SDS011;10749;46.296;7.524;2023-04-15T07:16:26;7.40;;;2.00;;
21181;SDS011;10749;46.296;7.524;2023-04-15T07:18:52;5.37;;;2.57;;
21181;SDS011;10749;46.296;7.524;2023-04-15T07:21:17;3.57;;;2.23;;
21181;SDS011;10749;46.296;7.524;2023-04-15T07:23:42;4.23;;;2.30;;
21181;SDS011;10749;46.296;7.524;2023-04-15T07:26:08;3.50;;;1.70;;
21181;SDS011;10749;46.296;7.524;2023-04-15T07:28:33;3.10;;;1.40;;
21181;SDS011;10749;46.296;7.524;2023-04-15T07:30:58;4.13;;;1.63;;
21181;SDS011;10749;46.296;7.524;2023-04-15T07:33:24;5.67;;;1.57;;
21181;SDS011;10749;46.296;7.524;2023-04-15T07:35:49;3.27;;;1.60;;
21181;SDS011;10749;46.296;7.524;2023-04-15T07:38:14;2.20;;;1.47;;
21181;SDS011;10749;46.296;7.524;2023-04-15T07:40:40;4.93;;;1.70;;
21181;SDS011;10749;46.296;7.524;2023-04-15T07:43:06;5.83;;;1.60;;
21181;SDS011;10749;46.296;7.524;2023-04-15T07:45:31;3.03;;;1.30;;
21181;SDS011;10749;46.296;7.524;2023-04-15T07:47:57;2.57;;;1.00;;
21181;SDS011;10749;46.296;7.524;2023-04-15T07:50:22;2.27;;;1.40;;
21181;SDS011;10749;46.296;7.524;2023-04-15T07:52:51;2.60;;;1.40;;
21181;SDS011;10749;46.296;7.524;2023-04-15T07:55:16;1.77;;;1.23;;
21181;SDS011;10749;46.296;7.524;2023-04-15T07:57:44;4.17;;;1.30;;
21181;SDS011;10749;46.296;7.524;2023-04-15T08:00:11;4.17;;;1.07;;
21181;SDS011;10749;46.296;7.524;2023-04-15T08:02:37;2.23;;;0.90;;
21181;SDS011;10749;46.296;7.524;2023-04-15T08:05:02;1.73;;;1.00;;
21181;SDS011;10749;46.296;7.524;2023-04-15T08:07:28;3.07;;;0.90;;
21181;SDS011;10749;46.296;7.524;2023-04-15T08:09:54;2.43;;;0.90;;
21181;SDS011;10749;46.296;7.524;2023-04-15T08:12:19;2.10;;;1.13;;
21181;SDS011;10749;46.296;7.524;2023-04-15T08:14:45;2.67;;;1.20;;
21181;SDS011;10749;46.296;7.524;2023-04-15T08:17:11;2.13;;;1.00;;
21181;SDS011;10749;46.296;7.524;2023-04-15T08:19:36;1.57;;;1.10;;
21181;SDS011;10749;46.296;7.524;2023-04-15T08:22:02;1.90;;;1.10;;
21181;SDS011;10749;46.296;7.524;2023-04-15T08:24:27;1.63;;;0.90;;
21181;SDS011;10749;46.296;7.524;2023-04-15T08:26:52;1.53;;;1.00;;
21181;SDS011;10749;46.296;7.524;2023-04-15T08:29:18;2.00;;;1.00;;
21181;SDS011;10749;46.296;7.524;2023-04-15T08:31:43;2.67;;;1.40;;
21181;SDS011;10749;46.296;7.524;2023-04-15T08:34:12;2.57;;;1.30;;
21181;SDS011;10749;46.296;7.524;2023-04-15T08:36:38;2.93;;;1.27;;
21181;SDS011;10749;46.296;7.524;2023-04-15T08:39:03;1.60;;;1.03;;
21181;SDS011;10749;46.296;7.524;2023-04-15T08:41:30;5.23;;;1.60;;
21181;SDS011;10749;46.296;7.524;2023-04-15T08:44:04;1.97;;;1.13;;
21181;SDS011;10749;46.296;7.524;2023-04-15T08:46:30;3.23;;;1.37;;
21181;SDS011;10749;46.296;7.524;2023-04-15T08:48:56;2.67;;;1.10;;
21181;SDS011;10749;46.296;7.524;2023-04-15T08:51:22;1.57;;;1.07;;
21181;SDS011;10749;46.296;7.524;2023-04-15T08:53:48;4.17;;;1.20;;
21181;SDS011;10749;46.296;7.524;2023-04-15T08:56:14;1.03;;;0.87;;
21181;SDS011;10749;46.296;7.524;2023-04-15T08:58:40;1.53;;;0.90;;
21181;SDS011;10749;46.296;7.524;2023-04-15T09:01:07;2.97;;;1.17;;
21181;SDS011;10749;46.296;7.524;2023-04-15T09:03:33;1.90;;;1.13;;
21181;SDS011;10749;46.296;7.524;2023-04-15T09:05:59;4.37;;;1.00;;
21181;SDS011;10749;46.296;7.524;2023-04-15T09:08:24;2.23;;;0.97;;
21181;SDS011;10749;46.296;7.524;2023-04-15T09:10:50;3.43;;;1.00;;
21181;SDS011;10749;46.296;7.524;2023-04-15T09:13:15;3.63;;;1.30;;
21181;SDS011;10749;46.296;7.524;2023-04-15T09:15:42;2.27;;;0.90;;
21181;SDS011;10749;46.296;7.524;2023-04-15T09:18:08;2.03;;;0.87;;
21181;SDS011;10749;46.296;7.524;2023-04-15T09:20:39;1.30;;;0.93;;
21181;SDS011;10749;46.296;7.524;2023-04-15T09:23:12;1.37;;;0.97;;
21181;SDS011;10749;46.296;7.524;2023-04-15T09:25:38;3.07;;;0.97;;
21181;SDS011;10749;46.296;7.524;2023-04-15T09:28:06;2.43;;;1.03;;
21181;SDS011;10749;46.296;7.524;2023-04-15T09:30:31;2.60;;;1.17;;
21181;SDS011;10749;46.296;7.524;2023-04-15T09:32:58;3.20;;;1.13;;
21181;SDS011;10749;46.296;7.524;2023-04-15T09:35:26;2.93;;;1.40;;
21181;SDS011;10749;46.296;7.524;2023-04-15T09:37:52;2.50;;;1.20;;
21181;SDS011;10749;46.296;7.524;2023-04-15T09:42:59;1.83;;;1.10;;
21181;SDS011;10749;46.296;7.524;2023-04-15T09:45:26;2.47;;;1.30;;
21181;SDS011;10749;46.296;7.524;2023-04-15T09:47:51;2.23;;;1.23;;
21181;SDS011;10749;46.296;7.524;2023-04-15T09:50:18;1.90;;;0.87;;
21181;SDS011;10749;46.296;7.524;2023-04-15T09:52:44;2.60;;;1.03;;
21181;SDS011;10749;46.296;7.524;2023-04-15T09:55:10;1.90;;;1.00;;
21181;SDS011;10749;46.296;7.524;2023-04-15T09:57:36;2.53;;;1.00;;
21181;SDS011;10749;46.296;7.524;2023-04-15T10:00:03;2.83;;;1.10;;
21181;SDS011;10749;46.296;7.524;2023-04-15T10:02:32;3.90;;;1.30;;
21181;SDS011;10749;46.296;7.524;2023-04-15T10:04:57;2.10;;;1.10;;
21181;SDS011;10749;46.296;7.524;2023-04-15T10:07:23;3.00;;;1.07;;
21181;SDS011;10749;46.296;7.524;2023-04-15T10:09:50;2.67;;;1.10;;
21181;SDS011;10749;46.296;7.524;2023-04-15T10:12:16;3.83;;;1.60;;
21181;SDS011;10749;46.296;7.524;2023-04-15T10:14:42;4.07;;;1.57;;
21181;SDS011;10749;46.296;7.524;2023-04-15T10:17:09;5.00;;;1.30;;
21181;SDS011;10749;46.296;7.524;2023-04-15T10:19:36;1.87;;;1.00;;
21181;SDS011;10749;46.296;7.524;2023-04-15T10:22:02;2.47;;;1.40;;
21181;SDS011;10749;46.296;7.524;2023-04-15T10:24:28;2.00;;;1.30;;
21181;SDS011;10749;46.296;7.524;2023-04-15T10:26:57;3.30;;;1.90;;
21181;SDS011;10749;46.296;7.524;2023-04-15T10:29:24;3.40;;;1.40;;
21181;SDS011;10749;46.296;7.524;2023-04-15T10:31:53;2.87;;;1.40;;
21181;SDS011;10749;46.296;7.524;2023-04-15T10:34:20;2.47;;;1.33;;
21181;SDS011;10749;46.296;7.524;2023-04-15T10:36:47;1.67;;;1.37;;
21181;SDS011;10749;46.296;7.524;2023-04-15T10:42:07;1.93;;;1.23;;
21181;SDS011;10749;46.296;7.524;2023-04-15T10:44:37;2.07;;;1.23;;
21181;SDS011;10749;46.296;7.524;2023-04-15T10:47:08;1.23;;;0.97;;
21181;SDS011;10749;46.296;7.524;2023-04-15T10:49:42;1.63;;;1.20;;
21181;SDS011;10749;46.296;7.524;2023-04-15T10:52:15;1.83;;;1.03;;
21181;SDS011;10749;46.296;7.524;2023-04-15T10:54:42;2.17;;;0.70;;
21181;SDS011;10749;46.296;7.524;2023-04-15T10:57:13;1.30;;;0.77;;
21181;SDS011;10749;46.296;7.524;2023-04-15T11:02:38;2.33;;;1.00;;
21181;SDS011;10749;46.296;7.524;2023-04-15T11:05:04;1.40;;;0.90;;
21181;SDS011;10749;46.296;7.524;2023-04-15T11:10:00;2.47;;;0.87;;
21181;SDS011;10749;46.296;7.524;2023-04-15T11:12:33;1.10;;;0.90;;
21181;SDS011;10749;46.296;7.524;2023-04-15T11:15:19;0.87;;;0.40;;
21181;SDS011;10749;46.296;7.524;2023-04-15T11:17:51;0.70;;;0.67;;
21181;SDS011;10749;46.296;7.524;2023-04-15T11:20:17;1.00;;;0.70;;
21181;SDS011;10749;46.296;7.524;2023-04-15T11:22:49;0.60;;;0.40;;
21181;SDS011;10749;46.296;7.524;2023-04-15T11:25:25;0.60;;;0.40;;
21181;SDS011;10749;46.296;7.524;2023-04-15T11:27:52;0.60;;;0.40;;
21181;SDS011;10749;46.296;7.524;2023-04-15T11:30:19;0.63;;;0.50;;
21181;SDS011;10749;46.296;7.524;2023-04-15T11:32:46;0.70;;;0.47;;
21181;SDS011;10749;46.296;7.524;2023-04-15T11:35:12;0.60;;;0.40;;
21181;SDS011;10749;46.296;7.524;2023-04-15T11:37:37;0.60;;;0.50;;
21181;SDS011;10749;46.296;7.524;2023-04-15T11:40:03;0.87;;;0.40;;
21181;SDS011;10749;46.296;7.524;2023-04-15T11:42:28;0.70;;;0.50;;
21181;SDS011;10749;46.296;7.524;2023-04-15T11:45:11;0.33;;;0.30;;
21181;SDS011;10749;46.296;7.524;2023-04-15T11:47:39;0.97;;;0.60;;
21181;SDS011;10749;46.296;7.524;2023-04-15T11:50:18;1.20;;;0.50;;
21181;SDS011;10749;46.296;7.524;2023-04-15T11:55:18;0.47;;;0.43;;
21181;SDS011;10749;46.296;7.524;2023-04-15T11:57:44;0.43;;;0.37;;
21181;SDS011;10749;46.296;7.524;2023-04-15T12:00:10;0.77;;;0.40;;
21181;SDS011;10749;46.296;7.524;2023-04-15T12:02:36;0.50;;;0.40;;
21181;SDS011;10749;46.296;7.524;2023-04-15T12:05:02;0.50;;;0.40;;
21181;SDS011;10749;46.296;7.524;2023-04-15T12:07:29;0.87;;;0.50;;
21181;SDS011;10749;46.296;7.524;2023-04-15T12:09:54;0.57;;;0.30;;
21181;SDS011;10749;46.296;7.524;2023-04-15T12:12:20;0.40;;;0.33;;
21181;SDS011;10749;46.296;7.524;2023-04-15T12:14:46;0.73;;;0.43;;
21181;SDS011;10749;46.296;7.524;2023-04-15T12:17:11;0.73;;;0.57;;
21181;SDS011;10749;46.296;7.524;2023-04-15T12:19:38;0.63;;;0.30;;
21181;SDS011;10749;46.296;7.524;2023-04-15T12:22:12;0.40;;;0.30;;
21181;SDS011;10749;46.296;7.524;2023-04-15T12:24:40;0.50;;;0.40;;
21181;SDS011;10749;46.296;7.524;2023-04-15T12:27:09;0.30;;;0.20;;
21181;SDS011;10749;46.296;7.524;2023-04-15T12:29:36;0.40;;;0.30;;
21181;SDS011;10749;46.296;7.524;2023-04-15T12:32:07;0.30;;;0.20;;
21181;SDS011;10749;46.296;7.524;2023-04-15T12:34:37;2.10;;;0.30;;
21181;SDS011;10749;46.296;7.524;2023-04-15T12:37:04;0.50;;;0.33;;
21181;SDS011;10749;46.296;7.524;2023-04-15T12:39:33;0.80;;;0.30;;
21181;SDS011;10749;46.296;7.524;2023-04-15T12:42:00;1.43;;;0.40;;
21181;SDS011;10749;46.296;7.524;2023-04-15T12:44:25;0.20;;;0.20;;
21181;SDS011;10749;46.296;7.524;2023-04-15T12:46:51;0.40;;;0.20;;
21181;SDS011;10749;46.296;7.524;2023-04-15T12:49:17;1.40;;;0.30;;
21181;SDS011;10749;46.296;7.524;2023-04-15T12:51:44;0.30;;;0.20;;
21181;SDS011;10749;46.296;7.524;2023-04-15T12:54:11;1.13;;;0.37;;
21181;SDS011;10749;46.296;7.524;2023-04-15T12:56:36;1.43;;;0.33;;
21181;SDS011;10749;46.296;7.524;2023-04-15T12:59:01;0.80;;;0.40;;
21181;SDS011;10749;46.296;7.524;2023-04-15T13:01:27;0.60;;;0.40;;
21181;SDS011;10749;46.296;7.524;2023-04-15T13:03:52;0.50;;;0.37;;
21181;SDS011;10749;46.296;7.524;2023-04-15T13:06:18;1.00;;;0.40;;
21181;SDS011;10749;46.296;7.524;2023-04-15T13:08:43;0.60;;;0.30;;
21181;SDS011;10749;46.296;7.524;2023-04-15T13:11:09;0.20;;;0.20;;
21181;SDS011;10749;46.296;7.524;2023-04-15T13:13:34;0.30;;;0.20;;
21181;SDS011;10749;46.296;7.524;2023-04-15T13:15:59;0.53;;;0.23;;
21181;SDS011;10749;46.296;7.524;2023-04-15T13:18:25;0.20;;;0.20;;
21181;SDS011;10749;46.296;7.524;2023-04-15T13:20:50;0.57;;;0.30;;
21181;SDS011;10749;46.296;7.524;2023-04-15T13:23:16;0.30;;;0.20;;
21181;SDS011;10749;46.296;7.524;2023-04-15T13:25:41;3.20;;;0.20;;
21181;SDS011;10749;46.296;7.524;2023-04-15T13:28:07;0.30;;;0.30;;
21181;SDS011;10749;46.296;7.524;2023-04-15T13:30:32;1.07;;;0.40;;
21181;SDS011;10749;46.296;7.524;2023-04-15T13:32:57;0.57;;;0.20;;
21181;SDS011;10749;46.296;7.524;2023-04-15T13:35:23;0.47;;;0.30;;
21181;SDS011;10749;46.296;7.524;2023-04-15T13:37:48;0.80;;;0.20;;
21181;SDS011;10749;46.296;7.524;2023-04-15T13:40:13;0.50;;;0.20;;
21181;SDS011;10749;46.296;7.524;2023-04-15T13:42:41;0.20;;;0.13;;
21181;SDS011;10749;46.296;7.524;2023-04-15T13:45:06;1.57;;;0.30;;
21181;SDS011;10749;46.296;7.524;2023-04-15T13:47:32;0.40;;;0.20;;
21181;SDS011;10749;46.296;7.524;2023-04-15T13:49:57;0.40;;;0.20;;
21181;SDS011;10749;46.296;7.524;2023-04-15T13:52:23;0.67;;;0.40;;
21181;SDS011;10749;46.296;7.524;2023-04-15T13:54:48;0.67;;;0.30;;
21181;SDS011;10749;46.296;7.524;2023-04-15T13:57:14;0.30;;;0.20;;
21181;SDS011;10749;46.296;7.524;2023-04-15T13:59:39;0.30;;;0.20;;
21181;SDS011;10749;46.296;7.524;2023-04-15T14:02:05;0.40;;;0.20;;
21181;SDS011;10749;46.296;7.524;2023-04-15T14:04:30;0.33;;;0.10;;
21181;SDS011;10749;46.296;7.524;2023-04-15T14:06:56;0.30;;;0.10;;
21181;SDS011;10749;46.296;7.524;2023-04-15T14:09:21;0.10;;;0.10;;
21181;SDS011;10749;46.296;7.524;2023-04-15T14:11:48;0.30;;;0.10;;
21181;SDS011;10749;46.296;7.524;2023-04-15T14:14:14;0.40;;;0.20;;
21181;SDS011;10749;46.296;7.524;2023-04-15T14:16:39;0.40;;;0.20;;
21181;SDS011;10749;46.296;7.524;2023-04-15T14:19:04;0.20;;;0.10;;
21181;SDS011;10749;46.296;7.524;2023-04-15T14:21:30;0.30;;;0.20;;
21181;SDS011;10749;46.296;7.524;2023-04-15T14:23:56;0.50;;;0.10;;
21181;SDS011;10749;46.296;7.524;2023-04-15T14:26:22;1.30;;;0.13;;
21181;SDS011;10749;46.296;7.524;2023-04-15T14:28:47;0.40;;;0.30;;
21181;SDS011;10749;46.296;7.524;2023-04-15T14:31:13;1.23;;;0.70;;
21181;SDS011;10749;46.296;7.524;2023-04-15T14:33:38;1.07;;;0.73;;
21181;SDS011;10749;46.296;7.524;2023-04-15T14:36:03;0.80;;;0.40;;
21181;SDS011;10749;46.296;7.524;2023-04-15T14:38:29;0.83;;;0.20;;
21181;SDS011;10749;46.296;7.524;2023-04-15T14:40:55;0.67;;;0.20;;
21181;SDS011;10749;46.296;7.524;2023-04-15T14:43:20;0.30;;;0.30;;
21181;SDS011;10749;46.296;7.524;2023-04-15T14:45:46;0.47;;;0.20;;
21181;SDS011;10749;46.296;7.524;2023-04-15T14:48:11;0.30;;;0.20;;
21181;SDS011;10749;46.296;7.524;2023-04-15T14:50:37;0.37;;;0.20;;
21181;SDS011;10749;46.296;7.524;2023-04-15T14:53:03;0.20;;;0.10;;
21181;SDS011;10749;46.296;7.524;2023-04-15T14:55:28;0.43;;;0.20;;